Time;durP1;ratioP1;P1;durP2;ratioP2;P2;SDS_P1;SDS_P2;PMS_P1;PMS_P2;Temp;Humidity;BMP_temperature;BMP_pressure;BME280_temperature;BME280_humidity;BME280_pressure;Samples;Min_cycle;Max_cycle;Signal;HPM_P1;HPM_P2
2023/05/23 00:01:45;;;;;;;;;;;15.60;99.90;;;;;;5076101;28;19909;-75
2023/05/23 00:04:15;;;;;;;;;;;15.40;99.90;;;;;;5076015;28;19909;-75
2023/05/23 00:06:45;;;;;;;;;;;15.20;99.90;;;;;;5075976;28;19904;-75
2023/05/23 00:09:12;;;;;;;;;;;15.00;99.90;;;;;;5075652;28;19951;-75
2023/05/23 00:11:38;;;;;;;;;;;14.90;99.90;;;;;;5075551;28;19955;-75
2023/05/23 00:14:07;;;;;;;;;;;14.90;99.90;;;;;;5057741;28;19908;-75
2023/05/23 00:16:32;;;;;;;;;;;14.90;99.90;;;;;;5075511;28;19904;-75
2023/05/23 00:18:58;;;;;;;;;;;15.00;99.90;;;;;;5075477;28;20287;-75
2023/05/23 00:21:23;;;;;;;;;;;15.10;99.90;;;;;;5075397;28;19908;-76
2023/05/23 00:23:49;;;;;;;;;;;15.10;99.90;;;;;;5057386;28;19915;-75
2023/05/23 00:26:14;;;;;;;;;;;15.00;99.90;;;;;;5057358;28;19908;-75
2023/05/23 00:28:40;;;;;;;;;;;14.80;99.90;;;;;;5074908;28;19912;-75
2023/05/23 00:31:06;;;;;;;;;;;14.70;99.90;;;;;;5075227;28;20288;-75
2023/05/23 00:33:33;;;;;;;;;;;14.80;99.90;;;;;;5075112;28;20253;-75
2023/05/23 00:36:01;;;;;;;;;;;14.80;99.90;;;;;;5074960;28;19904;-75
2023/05/23 00:38:27;;;;;;;;;;;14.80;99.90;;;;;;5075002;28;19909;-76
2023/05/23 00:40:52;;;;;;;;;;;14.80;99.90;;;;;;5057115;28;19916;-76
2023/05/23 00:43:20;;;;;;;;;;;14.80;99.90;;;;;;5075017;28;19908;-75
2023/05/23 00:45:47;;;;;;;9.60;7.60;;;14.70;99.90;;;;;;5074669;28;19912;-75
2023/05/23 00:48:14;;;;;;;11.73;8.32;;;14.80;99.90;;;;;;5056269;28;20034;-75
2023/05/23 00:50:40;;;;;;;9.18;7.28;;;14.80;99.90;;;;;;5056501;28;20058;-75
2023/05/23 00:53:06;;;;;;;10.98;7.53;;;14.90;99.90;;;;;;5074260;28;20512;-75
2023/05/23 00:55:33;;;;;;;11.57;8.05;;;14.80;99.90;;;;;;5074287;28;20053;-76
2023/05/23 00:57:58;;;;;;;10.10;7.88;;;14.90;99.90;;;;;;5074141;28;20016;-75
2023/05/23 01:00:25;;;;;;;10.35;7.55;;;14.90;99.90;;;;;;5074004;28;20040;-75
2023/05/23 01:02:51;;;;;;;11.10;7.45;;;14.90;99.90;;;;;;5056174;28;20503;-75
2023/05/23 01:05:18;;;;;;;10.63;7.78;;;14.90;99.90;;;;;;5056158;28;20032;-75
2023/05/23 01:07:45;;;;;;;10.98;7.57;;;14.90;99.90;;;;;;5073858;28;20526;-75
2023/05/23 01:10:12;;;;;;;11.00;8.45;;;14.90;99.90;;;;;;5056022;28;20507;-75
2023/05/23 01:13:03;;;;;;;9.60;8.10;;;14.90;99.90;;;;;;5073552;28;20055;-72
2023/05/23 01:15:35;;;;;;;9.30;7.53;;;14.90;99.90;;;;;;5073659;28;20416;-71
2023/05/23 01:18:18;;;;;;;9.77;7.10;;;14.90;99.90;;;;;;5073931;28;20096;-71
2023/05/23 01:20:52;;;;;;;9.38;7.43;;;14.90;99.90;;;;;;5074209;28;20021;-71
2023/05/23 01:23:38;;;;;;;10.48;7.78;;;14.90;99.90;;;;;;5073995;28;20032;-71
2023/05/23 01:26:41;;;;;;;10.05;7.78;;;14.80;99.90;;;;;;5073796;28;20494;-71
2023/05/23 01:29:12;;;;;;;12.90;8.05;;;14.70;99.90;;;;;;5073587;28;20435;-72
2023/05/23 01:31:51;;;;;;;11.25;7.63;;;14.50;99.90;;;;;;5073791;28;20078;-71
2023/05/23 01:34:18;;;;;;;10.55;7.68;;;14.40;99.90;;;;;;5073704;28;20111;-71
2023/05/23 01:36:44;;;;;;;11.32;8.70;;;14.20;99.90;;;;;;5073585;28;20029;-72
2023/05/23 01:39:10;;;;;;;9.20;7.30;;;14.10;99.90;;;;;;5055677;28;20078;-71
2023/05/23 01:41:36;;;;;;;10.90;7.88;;;14.10;99.90;;;;;;5073306;28;20033;-73
2023/05/23 01:44:02;;;;;;;11.88;8.02;;;14.10;99.90;;;;;;5073496;28;20074;-71
2023/05/23 01:46:30;;;;;;;10.20;8.15;;;14.10;99.90;;;;;;5055926;28;20040;-71
2023/05/23 01:48:57;;;;;;;9.90;6.72;;;14.10;99.90;;;;;;5073298;28;20025;-71
2023/05/23 01:51:24;;;;;;;10.20;7.70;;;14.20;99.90;;;;;;5073769;28;20496;-71
2023/05/23 01:53:50;;;;;;;9.07;6.88;;;14.30;99.90;;;;;;5055607;28;20077;-72
2023/05/23 01:56:17;;;;;;;9.40;7.43;;;14.30;99.90;;;;;;5073637;28;20068;-72
2023/05/23 01:58:42;;;;;;;11.65;8.35;;;14.30;99.90;;;;;;5073402;28;20040;-72
2023/05/23 02:01:09;;;;;;;10.05;8.00;;;14.30;99.90;;;;;;5073414;28;20481;-71
2023/05/23 02:03:35;;;;;;;14.75;10.63;;;14.20;99.90;;;;;;5073322;28;20025;-72
2023/05/23 02:06:00;;;;;;;17.23;12.15;;;14.00;99.90;;;;;;5055268;28;20039;-71
2023/05/23 02:08:26;;;;;;;23.15;16.40;;;13.90;99.90;;;;;;5073105;28;20043;-72
2023/05/23 02:10:52;;;;;;;25.35;19.05;;;13.90;99.90;;;;;;5073348;28;20362;-72
2023/05/23 02:13:17;;;;;;;23.40;18.27;;;13.80;99.90;;;;;;5073232;28;20071;-71
2023/05/23 02:15:43;;;;;;;23.08;15.95;;;13.70;99.90;;;;;;5055346;28;20029;-71
2023/05/23 02:18:09;;;;;;;16.45;12.70;;;13.60;99.90;;;;;;5073110;28;20031;-72
2023/05/23 02:20:34;;;;;;;12.73;10.43;;;13.60;99.90;;;;;;5073428;28;20112;-72
2023/05/23 02:23:00;;;;;;;11.93;9.32;;;13.60;99.90;;;;;;5055233;28;20028;-71
2023/05/23 02:25:26;;;;;;;11.32;9.13;;;13.60;99.90;;;;;;5055338;28;20051;-72
2023/05/23 02:27:51;;;;;;;10.60;8.20;;;13.70;99.90;;;;;;5073458;28;20029;-72
2023/05/23 02:30:17;;;;;;;10.90;7.72;;;13.70;99.90;;;;;;5072873;28;20036;-71
2023/05/23 02:32:43;;;;;;;11.27;7.53;;;13.80;99.90;;;;;;5073031;28;20031;-71
2023/05/23 02:35:09;;;;;;;9.95;7.20;;;13.80;99.90;;;;;;5072969;28;20548;-72
2023/05/23 02:37:35;;;;;;;9.25;7.20;;;13.80;99.90;;;;;;5055410;28;20525;-71
2023/05/23 02:40:00;;;;;;;12.95;7.50;;;13.70;99.90;;;;;;5055169;28;20025;-72
2023/05/23 02:42:26;;;;;;;9.43;7.25;;;13.70;99.90;;;;;;5072883;28;20082;-71
2023/05/23 02:44:52;;;;;;;12.15;7.93;;;13.70;99.90;;;;;;5073174;28;20024;-71
2023/05/23 02:47:18;;;;;;;10.60;7.60;;;13.70;99.90;;;;;;5038198;28;20025;-71
2023/05/23 02:49:43;;;;;;;9.18;7.13;;;13.70;99.90;;;;;;5072819;28;20039;-71
2023/05/23 02:52:09;;;;;;;9.20;6.88;;;13.70;99.90;;;;;;5056983;28;20431;-71
2023/05/23 02:54:35;;;;;;;9.35;7.32;;;13.70;99.90;;;;;;5076838;28;20063;-71
2023/05/23 02:57:00;;;;;;;9.60;7.45;;;13.70;99.90;;;;;;5076410;28;20024;-72
2023/05/23 02:59:26;;;;;;;10.95;7.50;;;13.70;99.90;;;;;;5058913;28;20156;-71
2023/05/23 03:01:52;;;;;;;8.85;7.10;;;13.80;99.90;;;;;;5076462;28;20033;-71
2023/05/23 03:04:17;;;;;;;10.90;8.82;;;13.80;99.90;;;;;;5076365;28;20025;-72
2023/05/23 03:06:43;;;;;;;14.85;10.02;;;13.70;99.90;;;;;;5076602;28;20028;-71
2023/05/23 03:09:09;;;;;;;14.68;10.23;;;13.60;99.90;;;;;;5076571;28;20028;-71
2023/05/23 03:11:35;;;;;;;15.88;10.93;;;13.50;99.90;;;;;;5076334;28;20035;-71
2023/05/23 03:14:01;;;;;;;19.05;13.07;;;13.40;99.90;;;;;;5076236;28;20082;-71
2023/05/23 03:16:27;;;;;;;16.63;11.73;;;13.30;99.90;;;;;;5058580;28;20060;-71
2023/05/23 03:18:52;;;;;;;21.20;13.07;;;13.20;99.90;;;;;;5076076;28;20024;-72
2023/05/23 03:21:18;;;;;;;18.65;12.60;;;13.20;99.90;;;;;;5076407;28;20424;-71
2023/05/23 03:23:44;;;;;;;17.80;12.18;;;13.20;99.90;;;;;;5076163;28;20572;-72
2023/05/23 03:26:10;;;;;;;16.90;11.02;;;13.30;99.90;;;;;;5076015;28;20039;-72
2023/05/23 03:28:36;;;;;;;12.35;8.57;;;13.30;99.90;;;;;;5057909;28;20028;-71
2023/05/23 03:31:01;;;;;;;11.80;8.25;;;13.30;99.90;;;;;;5058053;28;20032;-71
2023/05/23 03:33:27;;;;;;;11.98;8.63;;;13.30;99.90;;;;;;5076127;28;20033;-71
2023/05/23 03:35:53;;;;;;;10.55;7.55;;;13.30;99.90;;;;;;5075869;28;20373;-72
2023/05/23 03:38:20;;;;;;;8.88;7.28;;;13.30;99.90;;;;;;5075741;28;20028;-72
2023/05/23 03:40:46;;;;;;;10.05;7.72;;;13.30;99.90;;;;;;5075721;28;20132;-72
2023/05/23 03:43:11;;;;;;;11.18;7.55;;;13.30;99.90;;;;;;5075958;28;20017;-71
2023/05/23 03:45:37;;;;;;;14.10;8.40;;;13.30;99.90;;;;;;5075682;28;20035;-71
2023/05/23 03:48:03;;;;;;;13.77;8.05;;;13.30;99.90;;;;;;5075668;28;20109;-72
2023/05/23 03:50:28;;;;;;;10.60;7.43;;;13.30;99.90;;;;;;5075698;28;20037;-72
2023/05/23 03:52:54;;;;;;;10.32;7.65;;;13.30;99.90;;;;;;5075471;28;20028;-72
2023/05/23 03:55:21;;;;;;;11.80;8.45;;;13.20;99.90;;;;;;5057615;28;20119;-71
2023/05/23 03:57:53;;;;;;;10.07;8.02;;;13.20;99.90;;;;;;5075299;28;20024;-72
2023/05/23 04:00:19;;;;;;;12.10;8.23;;;13.10;99.90;;;;;;5075253;28;20032;-71
2023/05/23 04:02:45;;;;;;;12.43;8.80;;;13.10;99.90;;;;;;5075482;28;20078;-71
2023/05/23 04:05:12;;;;;;;10.85;8.20;;;13.00;99.90;;;;;;5075089;28;20114;-71
2023/05/23 04:07:38;;;;;;;11.50;8.32;;;13.10;99.90;;;;;;5057155;28;20035;-71
2023/05/23 04:10:04;;;;;;;11.25;7.75;;;13.10;99.90;;;;;;5075637;28;20368;-71
2023/05/23 04:12:30;;;;;;;11.23;8.15;;;13.10;99.90;;;;;;5074962;28;20028;-72
2023/05/23 04:14:56;;;;;;;9.27;7.47;;;13.20;99.90;;;;;;5075087;28;20029;-71
2023/05/23 04:17:23;;;;;;;12.63;7.38;;;13.20;99.90;;;;;;5074967;28;20025;-71
2023/05/23 04:19:49;;;;;;;10.57;7.95;;;13.20;99.90;;;;;;5074848;28;20032;-71
2023/05/23 04:22:15;;;;;;;10.90;8.60;;;13.20;99.90;;;;;;5074915;28;20033;-71
2023/05/23 04:24:41;;;;;;;12.38;8.70;;;13.10;99.90;;;;;;5075128;28;20562;-72
2023/05/23 04:27:07;;;;;;;10.90;8.48;;;13.00;99.90;;;;;;5074752;28;20037;-73
2023/05/23 04:29:34;;;;;;;10.20;8.10;;;13.00;99.90;;;;;;5074734;28;20485;-73
2023/05/23 04:32:01;;;;;;;11.55;8.48;;;12.90;99.90;;;;;;5074648;28;20450;-73
2023/05/23 04:34:27;;;;;;;11.10;8.65;;;12.90;99.90;;;;;;5040338;28;20025;-73
2023/05/23 04:36:56;;;;;;;11.93;9.15;;;12.90;99.90;;;;;;5056547;28;20077;-73
2023/05/23 04:39:21;;;;;;;11.80;8.80;;;13.00;99.90;;;;;;5056552;28;20032;-73
2023/05/23 04:41:48;;;;;;;11.77;8.45;;;13.00;99.90;;;;;;5074411;28;20032;-73
2023/05/23 04:44:14;;;;;;;11.45;7.93;;;13.10;99.90;;;;;;5074057;28;20029;-74
2023/05/23 04:46:44;;;;;;;11.90;8.25;;;13.10;99.90;;;;;;5071925;28;20038;-73
2023/05/23 04:49:10;;;;;;;14.02;9.77;;;13.20;99.90;;;;;;5044095;28;20029;-73
2023/05/23 04:51:37;;;;;;;28.08;17.60;;;13.30;99.90;;;;;;5036720;28;20025;-73
2023/05/23 04:54:02;;;;;;;21.42;14.25;;;13.30;99.90;;;;;;5054676;28;20428;-74
2023/05/23 04:56:28;;;;;;;15.88;10.50;;;13.40;99.90;;;;;;5051762;28;20028;-73
2023/05/23 04:58:55;;;;;;;12.32;9.40;;;13.40;99.90;;;;;;5074126;28;20039;-73
2023/05/23 05:01:23;;;;;;;13.25;9.90;;;13.40;99.90;;;;;;5074255;28;20020;-73
2023/05/23 05:03:49;;;;;;;13.57;10.32;;;13.50;99.90;;;;;;5056507;28;20119;-73
2023/05/23 05:06:16;;;;;;;12.50;9.43;;;13.50;99.90;;;;;;5073827;28;20032;-73
2023/05/23 05:08:42;;;;;;;12.70;9.15;;;13.40;99.90;;;;;;5073442;28;20415;-73
2023/05/23 05:11:08;;;;;;;14.93;9.73;;;13.50;99.90;;;;;;5056062;28;20100;-73
2023/05/23 05:13:34;;;;;;;12.07;9.30;;;13.50;99.90;;;;;;5073918;28;20027;-73
2023/05/23 05:16:00;;;;;;;14.43;10.68;;;13.50;99.90;;;;;;5052057;28;20033;-73
2023/05/23 05:18:26;;;;;;;14.77;11.38;;;13.50;99.90;;;;;;5058581;28;20053;-72
2023/05/23 05:20:52;;;;;;;15.18;10.80;;;13.40;99.90;;;;;;5063504;28;20560;-73
2023/05/23 05:23:17;;;;;;;14.93;11.25;;;13.40;99.90;;;;;;5053233;28;20401;-73
2023/05/23 05:25:43;;;;;;;13.95;9.80;;;13.30;99.90;;;;;;5052176;28;20029;-73
2023/05/23 05:28:09;;;;;;;13.48;10.27;;;13.30;99.90;;;;;;5053668;28;20025;-73
2023/05/23 05:30:35;;;;;;;13.32;9.70;;;13.20;99.90;;;;;;5052293;28;20091;-73
2023/05/23 05:33:04;;;;;;;14.23;10.43;;;13.30;99.90;;;;;;5053931;28;20032;-73
2023/05/23 05:35:31;;;;;;;12.07;9.55;;;13.30;99.90;;;;;;5053935;28;20029;-73
2023/05/23 05:37:57;;;;;;;12.18;10.23;;;13.30;99.90;;;;;;5058723;28;20025;-73
2023/05/23 05:40:23;;;;;;;14.63;11.18;;;13.40;99.90;;;;;;5053805;28;20107;-73
2023/05/23 05:42:49;;;;;;;16.85;11.55;;;13.40;99.90;;;;;;5053508;28;20078;-73
2023/05/23 05:45:14;;;;;;;14.95;10.68;;;13.40;99.90;;;;;;5053432;28;20056;-73
2023/05/23 05:47:40;;;;;;;15.60;10.55;;;13.40;99.90;;;;;;5053306;28;20033;-73
2023/05/23 05:50:09;;;;;;;12.18;9.75;;;13.40;99.90;;;;;;5053317;28;20036;-73
2023/05/23 05:52:38;;;;;;;12.63;10.00;;;13.40;99.90;;;;;;5036394;28;20025;-73
2023/05/23 05:55:06;;;;;;;13.98;10.45;;;13.50;99.90;;;;;;5035486;28;20100;-73
2023/05/23 05:57:32;;;;;;;13.38;10.63;;;13.60;99.90;;;;;;5053215;28;20071;-73
2023/05/23 05:59:58;;;;;;;12.73;9.55;;;13.60;99.90;;;;;;5035422;28;20064;-73
2023/05/23 06:02:23;;;;;;;14.75;10.95;;;13.60;99.90;;;;;;5018961;28;20032;-73
2023/05/23 06:04:49;;;;;;;16.77;11.50;;;13.70;99.90;;;;;;5035598;28;20028;-73
2023/05/23 06:07:15;;;;;;;14.23;10.95;;;13.70;99.90;;;;;;5053464;28;20040;-73
2023/05/23 06:09:40;;;;;;;17.40;11.25;;;13.70;99.90;;;;;;5058800;28;20473;-73
2023/05/23 06:12:06;;;;;;;13.68;10.82;;;13.70;99.90;;;;;;5071806;28;20660;-74
2023/05/23 06:14:32;;;;;;;16.20;10.85;;;13.70;99.90;;;;;;5036875;28;20493;-74
2023/05/23 06:16:58;;;;;;;18.08;12.07;;;13.70;99.90;;;;;;5052978;28;20048;-74
2023/05/23 06:19:24;;;;;;;13.60;10.90;;;13.80;99.90;;;;;;5071209;28;20028;-74
2023/05/23 06:21:50;;;;;;;14.82;11.40;;;13.90;99.90;;;;;;5071015;28;20040;-73
2023/05/23 06:24:15;;;;;;;18.52;11.38;;;13.90;99.90;;;;;;5071084;28;20029;-74
2023/05/23 06:26:41;;;;;;;16.75;12.00;;;14.00;99.90;;;;;;5072623;28;20102;-73
2023/05/23 06:29:07;;;;;;;16.75;12.30;;;14.10;99.90;;;;;;5077297;28;20032;-73
2023/05/23 06:31:33;;;;;;;18.42;13.02;;;14.10;99.90;;;;;;5077061;28;20029;-73
2023/05/23 06:34:00;;;;;;;18.33;13.65;;;14.10;99.90;;;;;;5077049;28;20020;-73
2023/05/23 06:36:25;;;;;;;19.75;12.90;;;14.10;99.90;;;;;;5077074;28;20028;-73
2023/05/23 06:38:51;;;;;;;19.00;13.68;;;14.20;99.90;;;;;;5076873;28;20047;-72
2023/05/23 06:41:16;;;;;;;19.02;12.80;;;14.20;99.90;;;;;;5076963;28;20427;-73
2023/05/23 06:43:42;;;;;;;16.30;12.07;;;14.30;99.90;;;;;;5076897;28;20029;-73
2023/05/23 06:46:08;;;;;;;15.57;11.73;;;14.40;99.90;;;;;;5076797;28;20416;-73
2023/05/23 06:48:33;;;;;;;19.67;14.07;;;14.40;99.90;;;;;;5059123;28;20028;-73
2023/05/23 06:50:59;;;;;;;23.15;15.07;;;14.50;99.90;;;;;;5076700;28;20039;-73
2023/05/23 06:53:24;;;;;;;21.25;14.18;;;14.60;99.90;;;;;;5076738;28;20032;-73
2023/05/23 06:55:50;;;;;;;18.75;13.10;;;14.70;99.90;;;;;;5077193;28;20414;-73
2023/05/23 06:58:16;;;;;;;18.35;14.25;;;14.80;99.90;;;;;;5058960;28;20037;-73
2023/05/23 07:00:41;;;;;;;19.83;14.05;;;14.80;99.90;;;;;;5076525;28;20381;-73
2023/05/23 07:03:07;;;;;;;15.98;11.38;;;14.90;99.90;;;;;;5076713;28;20503;-73
2023/05/23 07:05:33;;;;;;;13.52;10.75;;;15.00;99.90;;;;;;5076663;28;20036;-73
2023/05/23 07:07:59;;;;;;;16.33;11.88;;;15.20;99.90;;;;;;5076568;28;20443;-73
2023/05/23 07:10:25;;;;;;;15.00;10.85;;;15.20;99.90;;;;;;5058935;28;20108;-73
2023/05/23 07:12:51;;;;;;;13.55;10.85;;;15.30;99.90;;;;;;5076538;28;20382;-73
2023/05/23 07:15:17;;;;;;;17.80;11.45;;;15.40;99.90;;;;;;5058324;28;20423;-73
2023/05/23 07:17:43;;;;;;;15.82;11.45;;;15.50;99.90;;;;;;5076458;28;20029;-73
2023/05/23 07:20:09;;;;;;;15.73;11.35;;;15.60;99.90;;;;;;5058539;28;20027;-73
2023/05/23 07:22:35;;;;;;;18.60;12.13;;;15.70;99.90;;;;;;5076200;28;20048;-73
2023/05/23 07:25:01;;;;;;;20.58;12.80;;;15.80;99.90;;;;;;5076043;28;20063;-73
2023/05/23 07:27:27;;;;;;;17.88;13.10;;;15.90;99.90;;;;;;5057838;28;20212;-73
2023/05/23 07:29:53;;;;;;;20.23;12.88;;;15.90;99.90;;;;;;5058228;28;20031;-73
2023/05/23 07:32:19;;;;;;;19.67;12.95;;;15.90;99.90;;;;;;5058161;28;20496;-73
2023/05/23 07:34:44;;;;;;;18.65;11.98;;;16.00;99.90;;;;;;5076242;28;20036;-73
2023/05/23 07:37:10;;;;;;;26.50;12.32;;;16.10;99.90;;;;;;5057805;28;20024;-73
2023/05/23 07:39:36;;;;;;;15.02;11.95;;;16.10;99.90;;;;;;5056814;28;20033;-73
2023/05/23 07:42:01;;;;;;;27.13;12.90;;;16.10;99.90;;;;;;5076057;28;20472;-73
2023/05/23 07:44:27;;;;;;;21.77;12.10;;;16.10;99.90;;;;;;5078164;22;20519;-76
2023/05/23 07:46:53;;;;;;;16.60;11.35;;;16.10;99.90;;;;;;5064332;28;20073;-76
2023/05/23 07:49:19;;;;;;;13.15;10.07;;;16.00;99.90;;;;;;5043709;28;20116;-76
2023/05/23 07:51:45;;;;;;;11.00;8.25;;;16.00;99.90;;;;;;5065006;28;20079;-76
2023/05/23 07:54:11;;;;;;;9.77;7.45;;;16.00;99.90;;;;;;5055639;28;20100;-76
2023/05/23 07:56:39;;;;;;;10.77;7.97;;;15.90;99.90;;;;;;5055376;28;20102;-76
2023/05/23 07:59:07;;;;;;;13.15;8.35;;;15.90;99.90;;;;;;5055764;28;20074;-77
2023/05/23 08:01:33;;;;;;;13.50;9.00;;;15.90;99.90;;;;;;5054122;28;20036;-77
2023/05/23 08:03:58;;;;;;;11.15;8.07;;;15.80;99.90;;;;;;5057674;28;20036;-77
2023/05/23 08:06:24;;;;;;;13.68;8.68;;;15.80;99.90;;;;;;5076145;28;20067;-77
2023/05/23 08:08:50;;;;;;;11.65;7.88;;;15.70;99.90;;;;;;5057333;28;20033;-77
2023/05/23 08:11:16;;;;;;;11.63;8.30;;;15.70;99.90;;;;;;5075172;28;20021;-77
2023/05/23 08:13:41;;;;;;;11.02;7.95;;;15.70;99.90;;;;;;5075106;28;20021;-77
2023/05/23 08:16:07;;;;;;;12.18;9.10;;;15.60;99.90;;;;;;5056715;28;20029;-77
2023/05/23 08:18:32;;;;;;;13.35;9.15;;;15.60;99.90;;;;;;5075037;28;20369;-77
2023/05/23 08:20:58;;;;;;;11.85;8.68;;;15.60;99.90;;;;;;5057158;28;20476;-77
2023/05/23 08:23:24;;;;;;;11.10;8.45;;;15.50;99.90;;;;;;5075222;28;20025;-77
2023/05/23 08:25:50;;;;;;;17.75;10.23;;;15.50;99.90;;;;;;5074807;28;20080;-77
2023/05/23 08:28:16;;;;;;;12.32;9.70;;;15.40;99.90;;;;;;5074726;28;20024;-77
2023/05/23 08:30:41;;;;;;;15.38;9.48;;;15.40;99.90;;;;;;5066176;28;20388;-77
2023/05/23 08:33:07;;;;;;;12.50;8.73;;;15.40;99.90;;;;;;5048359;28;20438;-77
2023/05/23 08:35:35;;;;;;;11.15;8.40;;;15.30;99.90;;;;;;5065220;28;20027;-77
2023/05/23 08:38:02;;;;;;;12.38;8.35;;;15.30;99.90;;;;;;5063360;28;20056;-77
2023/05/23 08:40:30;;;;;;;12.88;9.55;;;15.30;99.90;;;;;;5054613;28;20028;-77
2023/05/23 08:42:59;;;;;;;11.60;8.38;;;15.40;99.90;;;;;;5054737;28;20159;-77
2023/05/23 08:45:24;;;;;;;14.10;8.52;;;15.40;99.90;;;;;;5056304;28;20040;-77
2023/05/23 08:47:52;;;;;;;10.73;8.38;;;15.40;99.90;;;;;;5074790;28;20029;-77
2023/05/23 08:50:18;;;;;;;12.93;8.25;;;15.40;99.90;;;;;;5056739;28;20056;-77
2023/05/23 08:52:58;;;;;;;11.82;8.00;;;15.40;99.90;;;;;;5074944;28;20078;-77
2023/05/23 08:55:26;;;;;;;12.20;8.60;;;15.40;99.90;;;;;;5075038;28;20047;-77
2023/05/23 08:57:56;;;;;;;10.25;7.60;;;15.30;99.90;;;;;;5067414;28;20072;-77
2023/05/23 09:00:24;;;;;;;11.33;8.20;;;15.30;99.90;;;;;;5034255;28;20025;-78
2023/05/23 09:02:50;;;;;;;12.40;8.48;;;15.20;99.90;;;;;;5050961;28;20029;-77
2023/05/23 09:05:16;;;;;;;12.98;8.38;;;15.20;99.90;;;;;;5045437;28;20033;-77
2023/05/23 09:07:46;;;;;;;13.57;9.13;;;15.20;99.90;;;;;;5051586;28;20477;-77
2023/05/23 09:10:13;;;;;;;11.40;8.27;;;15.10;99.90;;;;;;5063887;28;20404;-78
2023/05/23 09:12:39;;;;;;;13.45;8.90;;;15.00;99.90;;;;;;5058269;28;20056;-77
2023/05/23 09:15:08;;;;;;;12.18;9.05;;;14.90;99.90;;;;;;5063193;28;20032;-77
2023/05/23 09:17:35;;;;;;;13.88;10.23;;;14.90;99.90;;;;;;5074499;28;20094;-77
2023/05/23 09:20:01;;;;;;;16.73;10.52;;;14.90;99.90;;;;;;5056708;28;20025;-77
2023/05/23 09:22:27;;;;;;;15.07;10.40;;;14.80;99.90;;;;;;5075269;28;20028;-78
2023/05/23 09:24:54;;;;;;;14.02;10.38;;;14.80;99.90;;;;;;5076115;28;20392;-78
2023/05/23 09:27:20;;;;;;;15.27;10.38;;;14.80;99.90;;;;;;5076982;28;20407;-78
2023/05/23 09:29:48;;;;;;;15.80;10.77;;;14.80;99.90;;;;;;5058552;28;20032;-78
2023/05/23 09:32:18;;;;;;;14.88;10.15;;;14.70;99.90;;;;;;5077246;28;20020;-78
2023/05/23 09:35:04;;;;;;;14.60;10.00;;;14.70;99.90;;;;;;5064749;28;20476;-78
2023/05/23 09:37:35;;;;;;;12.90;9.13;;;14.70;99.90;;;;;;5070325;28;20021;-79
2023/05/23 09:40:05;;;;;;;14.88;9.27;;;14.70;99.90;;;;;;5076407;28;20048;-79
2023/05/23 09:42:35;;;;;;;14.98;11.45;;;14.70;99.90;;;;;;5077819;28;20084;-79
2023/05/23 09:45:01;;;;;;;13.93;9.52;;;14.80;99.90;;;;;;5058415;28;20037;-79
2023/05/23 09:47:27;;;;;;;17.40;10.98;;;14.90;99.90;;;;;;5077176;28;20031;-78
2023/05/23 09:49:53;;;;;;;12.07;9.30;;;15.00;99.90;;;;;;5077008;28;20087;-79
2023/05/23 09:52:21;;;;;;;14.27;9.52;;;15.10;99.90;;;;;;5077213;28;20021;-79
2023/05/23 09:54:47;;;;;;;13.90;8.98;;;15.30;99.90;;;;;;5059046;28;20025;-79
2023/05/23 09:57:15;;;;;;;11.75;8.90;;;15.50;99.90;;;;;;5076551;28;20025;-79
2023/05/23 09:59:44;;;;;;;12.90;7.72;;;15.80;99.90;;;;;;5058261;28;20059;-79
2023/05/23 10:02:11;;;;;;;11.18;7.47;;;16.00;99.90;;;;;;5075991;28;20028;-79
2023/05/23 10:04:41;;;;;;;12.63;7.13;;;16.20;99.90;;;;;;5058060;28;20513;-78
2023/05/23 10:07:16;;;;;;;10.90;8.10;;;16.40;99.90;;;;;;5076396;28;20086;-78
2023/05/23 10:09:47;;;;;;;9.32;7.03;;;16.50;99.90;;;;;;5076117;28;20032;-79
2023/05/23 10:12:39;;;;;;;9.82;6.40;;;16.60;99.90;;;;;;5076951;28;20020;-78
2023/05/23 10:15:07;;;;;;;8.18;5.93;;;16.70;99.90;;;;;;5075470;28;20036;-78
2023/05/23 10:17:36;;;;;;;8.23;6.10;;;16.80;99.90;;;;;;5075786;28;20431;-78
2023/05/23 10:20:13;;;;;;;8.70;6.22;;;16.90;99.90;;;;;;5075704;28;20446;-78
2023/05/23 10:22:40;;;;;;;8.27;6.47;;;17.00;99.90;;;;;;5075651;28;20024;-78
2023/05/23 10:25:07;;;;;;;11.18;6.97;;;17.10;99.90;;;;;;5075906;28;20029;-78
2023/05/23 10:27:33;;;;;;;11.05;7.68;;;17.10;99.90;;;;;;5075502;28;20016;-78
2023/05/23 10:29:59;;;;;;;11.43;8.50;;;17.00;99.90;;;;;;5075043;28;20561;-79
2023/05/23 10:32:27;;;;;;;9.18;6.93;;;17.10;99.90;;;;;;5057660;28;20119;-79
2023/05/23 10:35:03;;;;;;;8.98;6.72;;;17.20;99.90;;;;;;5076170;28;20026;-79
2023/05/23 10:37:37;;;;;;;9.27;6.25;;;17.50;99.90;;;;;;5076112;28;20477;-78
2023/05/23 10:40:12;;;;;;;9.45;7.30;;;17.70;99.90;;;;;;5076064;28;20032;-78
2023/05/23 10:42:56;;;;;;;10.40;7.00;;;17.70;99.90;;;;;;5076147;28;20499;-79
2023/05/23 10:45:23;;;;;;;8.73;6.90;;;17.70;99.90;;;;;;5075419;28;20044;-78
2023/05/23 10:47:51;;;;;;;8.80;6.70;;;17.70;99.90;;;;;;5057994;28;20029;-79
2023/05/23 10:50:34;;;;;;;10.57;6.75;;;17.70;99.90;;;;;;5076530;28;20037;-79
2023/05/23 10:53:04;;;;;;;9.52;6.90;;;17.90;99.90;;;;;;5075704;28;20017;-79
2023/05/23 10:55:34;;;;;;;7.93;6.90;;;18.00;99.90;;;;;;5075858;28;20552;-79
2023/05/23 10:58:19;;;;;;;11.17;6.53;;;18.20;99.90;;;;;;5075764;28;20105;-79
2023/05/23 11:00:58;;;;;;;7.80;5.53;;;18.30;99.90;;;;;;5075637;28;20020;-80
2023/05/23 11:03:32;;;;;;;8.13;5.65;;;18.40;99.90;;;;;;5058086;28;20029;-79
2023/05/23 11:05:58;;;;;;;7.32;5.43;;;18.40;99.90;;;;;;5057767;28;20404;-79
2023/05/23 11:08:24;;;;;;;7.25;5.18;;;18.40;99.90;;;;;;5058055;28;20020;-80
2023/05/23 11:10:59;;;;;;;9.70;5.50;;;18.40;99.90;;;;;;5058266;28;20123;-79
2023/05/23 11:13:54;;;;;;;7.60;5.50;;;18.40;99.90;;;;;;5076860;28;20487;-79
2023/05/23 11:16:24;;;;;;;7.10;5.65;;;18.50;99.90;;;;;;5078685;28;20048;-79
2023/05/23 11:18:50;;;;;;;8.23;5.93;;;18.80;99.90;;;;;;5078766;28;20051;-79
2023/05/23 11:21:16;;;;;;;7.50;5.85;;;19.00;99.90;;;;;;5061593;28;20480;-79
2023/05/23 11:23:42;;;;;;;8.05;5.88;;;19.00;99.90;;;;;;5079440;28;20094;-80
2023/05/23 11:26:31;;;;;;;8.60;6.13;;;19.20;99.90;;;;;;5078900;28;20387;-79
2023/05/23 11:28:58;;;;;;;9.57;5.50;;;19.40;99.90;;;;;;5079045;28;20039;-79
2023/05/23 11:31:23;;;;;;;9.32;6.65;;;19.60;99.90;;;;;;5061935;28;20028;-80
2023/05/23 11:33:53;;;;;;;9.82;5.90;;;19.80;99.90;;;;;;5080116;28;20565;-79
2023/05/23 11:36:21;;;;;;;9.48;6.45;;;20.00;99.90;;;;;;5062170;28;20115;-79
2023/05/23 11:38:51;;;;;;;8.15;5.97;;;20.10;99.90;;;;;;5059868;28;20032;-80
2023/05/23 11:41:17;;;;;;;6.28;5.55;;;20.30;99.90;;;;;;5058035;28;20352;-79
2023/05/23 11:43:50;;;;;;;7.05;5.50;;;20.40;99.90;;;;;;5040581;28;20036;-80
2023/05/23 11:46:16;;;;;;;7.70;5.35;;;20.50;99.90;;;;;;5041352;28;20041;-79
2023/05/23 11:48:46;;;;;;;8.13;5.22;;;20.60;99.90;;;;;;5059161;28;20082;-78
2023/05/23 11:51:12;;;;;;;5.68;4.05;;;20.70;99.90;;;;;;5055926;28;20021;-78
2023/05/23 11:53:37;;;;;;;6.75;4.90;;;20.90;99.90;;;;;;5059160;28;20118;-79
2023/05/23 11:56:03;;;;;;;5.95;4.53;;;21.00;99.90;;;;;;5059048;28;20031;-79
2023/05/23 11:58:34;;;;;;;6.22;4.47;;;21.20;99.90;;;;;;5065495;28;20021;-78
2023/05/23 12:01:03;;;;;;;8.23;5.43;;;21.30;99.90;;;;;;5074741;28;20023;-78
2023/05/23 12:03:30;;;;;;;7.45;5.07;;;21.50;99.90;;;;;;5078337;28;20028;-78
2023/05/23 12:05:56;;;;;;;;;;;21.50;99.90;;;;;;5060557;28;20025;-78
2023/05/23 12:08:21;;;;;;;;;;;21.60;99.90;;;;;;5077976;28;19919;-78
2023/05/23 12:10:48;;;;;;;;;;;21.50;99.90;;;;;;5076902;28;19924;-78
2023/05/23 12:13:13;;;;;;;7.72;5.55;;;21.50;99.90;;;;;;5077712;28;19913;-78
2023/05/23 12:15:39;;;;;;;5.80;4.40;;;21.50;99.90;;;;;;5059434;28;20499;-78
2023/05/23 12:18:06;;;;;;;6.97;4.35;;;21.60;99.90;;;;;;5077048;28;20017;-78
2023/05/23 12:20:34;;;;;;;5.05;4.03;;;21.70;99.90;;;;;;5059707;28;20502;-78
2023/05/23 12:23:03;;;;;;;;;;;21.80;99.90;;;;;;5077079;28;20028;-78
2023/05/23 12:25:29;;;;;;;;;;;22.00;99.90;;;;;;5077090;28;19905;-78
2023/05/23 12:27:55;;;;;;;;;;;22.20;99.90;;;;;;5078039;28;19911;-78
2023/05/23 12:30:21;;;;;;;;;;;22.30;99.90;;;;;;5077302;28;20418;-78
2023/05/23 12:32:46;;;;;;;;;;;22.40;99.90;;;;;;5059175;28;19904;-78
2023/05/23 12:35:13;;;;;;;;;;;22.50;99.30;;;;;;5077240;28;19991;-78
2023/05/23 12:37:39;;;;;;;;;;;22.40;98.20;;;;;;5077185;28;20379;-78
2023/05/23 12:40:09;;;;;;;;;;;22.30;99.60;;;;;;5077573;28;19926;-78
2023/05/23 12:42:45;;;;;;;;;;;22.10;99.40;;;;;;5077235;28;19908;-78
2023/05/23 12:45:12;;;;;;;;;;;21.90;99.50;;;;;;5076385;28;20265;-78
2023/05/23 12:47:38;;;;;;;;;;;21.80;99.90;;;;;;5077035;28;19908;-78